This is the latest recevied weather packets stored in our database for station/object KB8DOA. If no packets are shown the sender has not sent any weather packets the latest 10 day(s).
| Time | Temp. | Humidity | Pressure | Rain* | Wind** | Luminosity | Snow |
|---|---|---|---|---|---|---|---|
| 1777597803 | 27.22° C | 71% | 1010.3 hPa | 0 mm | - | 0 W/m² | - |
| 1777596004 | 27.22° C | 71% | 1009.7 hPa | 0 mm | - | 0 W/m² | - |
| 1777595104 | 27.22° C | 71% | 1009.6 hPa | 0 mm | - | 0 W/m² | - |
| 1777594803 | 27.22° C | 71% | 1009.6 hPa | 0 mm | - | 0 W/m² | - |
| 1777593604 | 27.78° C | 70% | 1009.5 hPa | 0 mm | - | 0 W/m² | - |
| 1777593303 | 27.78° C | 69% | 1009.5 hPa | 0 mm | - | 0 W/m² | - |
| 1777592104 | 27.78° C | 69% | 1009.4 hPa | 0 mm | - | 0 W/m² | - |
| 1777590304 | 27.78° C | 71% | 1009.1 hPa | 0 mm | - | 0 W/m² | - |
| 1777588504 | 27.78° C | 66% | 1008.9 hPa | 0 mm | - | 0 W/m² | - |
| 1777587904 | 27.78° C | 65% | 1009.6 hPa | 0 mm | - | 0 W/m² | - |
| 1777585204 | 28.33° C | 65% | 1009.9 hPa | 0 mm | - | 0 W/m² | - |
| 1777578005 | 28.33° C | 68% | 1010 hPa | 0 mm | - | 0 W/m² | - |
| 1777577404 | 27.78° C | 70% | 1009.5 hPa | 0 mm | - | 0 W/m² | - |
| 1777575904 | 28.33° C | 69% | 1009.8 hPa | 0 mm | - | 0 W/m² | - |
| 1777573504 | 28.33° C | 71% | 1010 hPa | 0 mm | - | 0 W/m² | - |
| 1777572003 | 28.33° C | 70% | 1010.1 hPa | 0 mm | - | 1280 W/m² | - |
| 1777571703 | 28.33° C | 70% | 1010.3 hPa | 0 mm | - | 1286 W/m² | - |
| 1777570204 | 28.33° C | 69% | 1010.2 hPa | 0 mm | - | 1300 W/m² | - |
| 1777569304 | 28.33° C | 68% | 1010.1 hPa | 0 mm | - | 1298 W/m² | - |
| 1777566904 | 29.44° C | 55% | 1013.7 hPa | 0 mm | - | 1252 W/m² | - |
| 1777564503 | 28.89° C | 57% | 1013.8 hPa | 0 mm | - | 1152 W/m² | - |
| 1777560604 | 28.33° C | 62% | 1013.3 hPa | 0 mm | - | 898 W/m² | - |
| 1777557905 | 26.67° C | 67% | 1012 hPa | 0 mm | - | 682 W/m² | - |
| 1777556404 | 25.56° C | 72% | 1010.2 hPa | 0 mm | - | 557 W/m² | - |
| 1777556104 | 25.56° C | 70% | 1010.2 hPa | 0 mm | - | 532 W/m² | - |
* Rain latest hour (hover to see other rain measurements)
** Current wind speed in m/s (hover to see current wind gust speed)